Airfield :
LOGIN :

Register | Disclaimer

   EN    FR    IT 

 










Legend :    VFR   Marginal VFR   IFR   Intensive IFR   Very Intensive IFR
Visi :
Ceiling :
>= 8 km
>= 3000ft
5 to 8 km
1000 to 3000 ft
1500m to 5 km
500 to 1000 ft
800 to 1500m
200 to 500 ft
< 800m
< 200 ft
Symbols :   Thunderstorms  Fog  Heavy snow  Heavy precipitations  Wind > 20 kt
SIGMETs :     Misc.  Thunderstorms  Icing  Turbulence  Mountain Waves  Volcanic Ashes







- Airport Elevation : 12 ft
- IATA code : BCN


LEBL - Barcelone

CURRENT METAR :
  • 211500Z 20016KT 9999 FEW035 27/17 Q1012 NOSIG

EXPIRED METARs :
  • 211430Z 21016KT 9999 FEW035 27/17 Q1013 NOSIG
  • 211400Z 21015KT 9999 FEW020 27/17 Q1013 NOSIG
  • 211330Z 21014KT 9999 FEW020 SCT035 28/16 Q1013 NOSIG
  • 211300Z 23013KT 190V260 9999 FEW020 28/16 Q1013 NOSIG
  • 211230Z 28009KT 9999 FEW020 SCT035 28/15 Q1014 NOSIG
  • 211200Z 25008KT 220V290 9999 FEW020 SCT035 27/18 Q1014 NOSIG

TAF TAF LEBL
Valid from the 21 at 12:00 until the 22 at 12:00 UTC


211100Z 2112/2212 22010KT 9999 SCT020 BKN040 TX28/2112Z TN21/2205Z
TEMPO 2112/2119 FEW020CB BKN035
BECMG 2120/2122 10007KT
TEMPO 2200/2206 VRB04KT SCT020CB BKN030
TEMPO 2206/2212 2000 +TSRA SCT020CB BKN025
No reported NOTAMs for that airfield.
1 SIGMET reported for the Barcelona FIR (LECB) :
 
Embedded thunderstorms
LECB SIGMET 1 VALID 211354/211600 LEVA
LECB BARCELONA FIR/UIR EMBD TS OBS AT 1354Z N OF LINE N4215 W00012 - N4156 E00257 TOP FL330 MOV NE 20KT NC=



MET'MAP, your aeronautical weather chart ! - Copyright ORBIFLY December 2007 - Disclaimer

ORBIFLY MET'MAP TEAM :

Programming & Development : Alexandra Zaïnal
Concept & Development : Baudouin d'Aumeries
Co-Development & Prog : Marc-Olivier Méhu
Technical & hardware support : Manuel Goepfert

Contact : metmap@orbifly.com




SOURCES & CREDITS :

   NOAA